SIGN INREGISTER
/

Icon Viceroy

485 Brickell Av, Miami, FL 33131
Brickell
2009
507
63
1-3 Bedrooms
790 1-459 SQ FT
53
35
Building Description

The ICON Brickell Viceroy was completed in 2009 and designed by Arquitectonia. This bayfront tower is part of the ICON Brickell and sits next to sister condominium towers, the ICON 1 and 2. The 53-story Viceroy tower houses a hotel as well as residences, offering a range of hotel services to both owners and guests. With stunning views of the bay and city, luxury amenities and an ultra-contemporary design, the ICON Brickell Viceroy offers a style of living not found elsewhere in the city. Studio units are available, as well as 1-, 2- and 3-bedroom units ranging from 495 to 1,459 square feet.

Kitchens at the Viceroy include granite or limestone countertops with matching backsplashes, high-end Miele and Sub-Zero appliances, full-size stackable washer and dryer and two choices of Italian Dellacasa cabinets. Residences are complete with stunning views of downtown, South Beach, Key Biscayne and Biscayne Bay from floor-to-ceiling windows, large terraces and smooth 9-foot ceilings. Units also include spacious floor plans, an Interactive Resident Information System panel, a high-efficiency central AC and heating unit and state-of-the-art telecommunications wiring.

Amenities at ICON Brickell Viceroy:

  • State-of-the-art spa and fitness center with steam room, his and hers lounge areas, aerobics studio, cold plunge pool, Jacuzzi and redwood saunas.
  • 2.5 acre recreation and pool deck with outdoor grill and juice bar, fireplace and pools
  • Poolside Cafe Icon
  • 3 meeting rooms with city-view ballroom and 2 executive boardrooms overlooking the river and bay
  • Viceroy Miami theater room
  • Concierge services
  • 24-hour valet
Listings
Unit # Beds/Baths List Price Sq.Ft. M2 List Date Details
4904 2/2/0 $749,900.00 1,286 Sq.Ft. 120 07/22/2013 View Details
4903 1/1/0 $469,900.00 790 Sq.Ft. 74 07/23/2013 View Details
4902 2/2/0 $774,900.00 1,386 Sq.Ft. 129 07/23/2013 View Details
3109 2/1/0 $499,000.00 953 Sq.Ft. 89 10/17/2013 View Details
3201 1/1/0 $635,000.00 898 Sq.Ft. 84 11/01/2013 View Details
3704 2/2/0 $795,000.00 1,286 Sq.Ft. 120 11/01/2013 View Details
3005 0/1/0 $399,000.00 495 Sq.Ft. 47 11/01/2013 View Details
1903 1/1/0 $475,000.00 790 Sq.Ft. 74 11/04/2013 View Details
2608 2/2/0 $695,000.00 1,459 Sq.Ft. 136 11/08/2013 View Details
4208 2/2/0 $800,000.00 1,459 Sq.Ft. 136 11/14/2013 View Details
4304 2/2/0 $830,000.00 1,286 Sq.Ft. 120 12/16/2013 View Details
3505 0/1/0 $380,000.00 495 Sq.Ft. 47 12/16/2013 View Details
3602 2/2/0 $730,000.00 1,386 Sq.Ft. 129 12/17/2013 View Details
2202 2/2/0 $749,000.00 1,386 Sq.Ft. 129 12/30/2013 View Details
4711 1/1/0 $460,000.00 876 Sq.Ft. 82 01/20/2014 View Details
3807 1/1/0 $400,000.00 842 Sq.Ft. 79 02/08/2014 View Details
1801 1/1/0 $475,000.00 898 Sq.Ft. 84 02/13/2014 View Details
3909 1/1/0 $480,000.00 953 Sq.Ft. 89 02/14/2014 View Details
4802 2/2/0 $749,000.00 1,386 Sq.Ft. 129 02/18/2014 View Details
3701 1/1/0 $445,000.00 898 Sq.Ft. 84 02/18/2014 View Details
2707 1/1/0 $384,000.00 842 Sq.Ft. 79 02/19/2014 View Details
3307 1/1/0 $449,000.00 842 Sq.Ft. 79 03/03/2014 View Details
3205 0/1/0 $315,000.00 495 Sq.Ft. 47 03/05/2014 View Details
4011 1/1/0 $480,000.00 876 Sq.Ft. 82 03/11/2014 View Details
3901 1/1/0 $440,000.00 898 Sq.Ft. 84 03/11/2014 View Details
4905 0/1/0 $295,000.00 495 Sq.Ft. 47 03/11/2014 View Details
3401 1/1/0 $550,000.00 898 Sq.Ft. 84 03/12/2014 View Details
3903 1/1/0 $460,000.00 790 Sq.Ft. 74 03/12/2014 View Details
3102 2/2/0 $750,000.00 1,386 Sq.Ft. 129 03/13/2014 View Details
2907 1/1/0 $410,000.00 842 Sq.Ft. 79 03/14/2014 View Details
4307 1/1/0 $395,000.00 842 Sq.Ft. 79 03/17/2014 View Details
3004 2/2/0 $679,000.00 1,286 Sq.Ft. 120 03/17/2014 View Details
2806 1/1/0 $503,000.00 842 Sq.Ft. 79 03/17/2014 View Details
4704 2/2/0 $690,000.00 1,286 Sq.Ft. 120 03/17/2014 View Details
1905 0/1/0 $330,000.00 495 Sq.Ft. 47 03/18/2014 View Details
4107 1/1/0 $438,000.00 842 Sq.Ft. 79 03/19/2014 View Details
3606 1/1/0 $425,000.00 842 Sq.Ft. 79 03/21/2014 View Details
3707 1/1/0 $399,000.00 842 Sq.Ft. 79 03/21/2014 View Details
2311 1/1/0 $439,000.00 876 Sq.Ft. 82 03/24/2014 View Details
2009 2/1/0 $475,000.00 953 Sq.Ft. 89 03/24/2014 View Details
4510 2/2/0 $815,000.00 1,347 Sq.Ft. 126 03/26/2014 View Details
2207 1/1/0 $380,000.00 842 Sq.Ft. 79 03/28/2014 View Details
2906 1/1/0 $430,000.00 842 Sq.Ft. 79 03/28/2014 View Details
3905 0/1/0 $365,000.00 495 Sq.Ft. 47 03/29/2014 View Details
4609 2/1/0 $509,000.00 953 Sq.Ft. 89 04/03/2014 View Details
3806 1/1/0 $420,000.00 842 Sq.Ft. 79 04/04/2014 View Details
2506 1/1/0 $379,000.00 842 Sq.Ft. 79 04/07/2014 View Details
3105 0/1/0 $299,000.00 495 Sq.Ft. 47 04/08/2014 View Details
4306 1/1/0 $385,000.00 842 Sq.Ft. 79 04/10/2014 View Details
3502 2/2/0 $729,000.00 1,386 Sq.Ft. 129 04/10/2014 View Details
2306 1/1/0 $500,000.00 842 Sq.Ft. 79 04/10/2014 View Details
4503 1/1/0 $449,000.00 790 Sq.Ft. 74 04/13/2014 View Details
4705 0/1/0 $339,000.00 495 Sq.Ft. 47 04/14/2014 View Details
Property on a Map
Search Attractions Around This Listing (Read reviews on Yelp)
© The data relating to real estate for sale/lease on this web site come in part from a cooperative data exchange program of the multiple listing service (MLS) in which this real estate firm (Broker) participates. The properties displayed may not be all of the properties in the MLS's database, or all of the properties listed with Brokers participating in the cooperative data exchange program. Properties listed by Brokers other than this Broker are marked with either the listing Broker's logo or name or the MLS name or a logo provided by the MLS. Detailed information about such properties includes the name of the listing Brokers. Information provided is thought to be reliable but is not guaranteed to be accurate; you are advised to verify facts that are important to you. No warranties, expressed or implied, are provided for the data herein, or for their use or interpretation by the user. The Florida Association of Realtors and its cooperating MLSs do not create, control or review the property data displayed herein and take no responsibility for the content of such records. Federal law prohibits discrimination on the basis of race, color, religion, sex, handicap, familial status or national origin in the sale, rental or financing of housing. Listing courtesy of :